sensor_id;sensor_type;location;lat;lon;timestamp;P1;durP1;ratioP1;P2;durP2;ratioP2
16480;SDS011;44634;54.110;12.138;2022-10-13T00:01:45;13.40;;;6.20;;
16480;SDS011;44634;54.110;12.138;2022-10-13T00:04:14;11.10;;;5.63;;
16480;SDS011;44634;54.110;12.138;2022-10-13T00:06:41;13.23;;;5.77;;
16480;SDS011;44634;54.110;12.138;2022-10-13T00:09:09;8.90;;;5.57;;
16480;SDS011;44634;54.110;12.138;2022-10-13T00:11:37;22.60;;;5.60;;
16480;SDS011;44634;54.110;12.138;2022-10-13T00:14:05;13.20;;;5.10;;
16480;SDS011;44634;54.110;12.138;2022-10-13T00:16:32;11.60;;;4.70;;
16480;SDS011;44634;54.110;12.138;2022-10-13T00:19:00;7.07;;;4.87;;
16480;SDS011;44634;54.110;12.138;2022-10-13T00:21:29;11.57;;;4.80;;
16480;SDS011;44634;54.110;12.138;2022-10-13T00:23:57;6.50;;;4.10;;
16480;SDS011;44634;54.110;12.138;2022-10-13T00:26:25;6.20;;;4.10;;
16480;SDS011;44634;54.110;12.138;2022-10-13T00:28:54;5.53;;;4.17;;
16480;SDS011;44634;54.110;12.138;2022-10-13T00:31:22;15.57;;;4.43;;
16480;SDS011;44634;54.110;12.138;2022-10-13T00:33:51;8.40;;;4.10;;
16480;SDS011;44634;54.110;12.138;2022-10-13T00:36:19;13.63;;;4.50;;
16480;SDS011;44634;54.110;12.138;2022-10-13T00:38:48;10.20;;;4.17;;
16480;SDS011;44634;54.110;12.138;2022-10-13T00:41:16;12.40;;;4.00;;
16480;SDS011;44634;54.110;12.138;2022-10-13T00:43:53;8.90;;;4.20;;
16480;SDS011;44634;54.110;12.138;2022-10-13T00:46:23;11.70;;;3.90;;
16480;SDS011;44634;54.110;12.138;2022-10-13T00:48:52;8.83;;;4.17;;
16480;SDS011;44634;54.110;12.138;2022-10-13T00:51:23;12.10;;;4.47;;
16480;SDS011;44634;54.110;12.138;2022-10-13T00:53:55;8.17;;;4.43;;
16480;SDS011;44634;54.110;12.138;2022-10-13T00:56:23;5.87;;;3.77;;
16480;SDS011;44634;54.110;12.138;2022-10-13T00:58:52;9.67;;;4.50;;
16480;SDS011;44634;54.110;12.138;2022-10-13T01:01:22;12.87;;;4.40;;
16480;SDS011;44634;54.110;12.138;2022-10-13T01:03:50;11.63;;;4.20;;
16480;SDS011;44634;54.110;12.138;2022-10-13T01:06:18;10.13;;;4.40;;
16480;SDS011;44634;54.110;12.138;2022-10-13T01:08:49;9.00;;;4.10;;
16480;SDS011;44634;54.110;12.138;2022-10-13T01:11:33;8.90;;;4.60;;
16480;SDS011;44634;54.110;12.138;2022-10-13T01:14:16;9.23;;;3.70;;
16480;SDS011;44634;54.110;12.138;2022-10-13T01:16:54;10.63;;;4.30;;
16480;SDS011;44634;54.110;12.138;2022-10-13T01:22:44;7.53;;;4.67;;
16480;SDS011;44634;54.110;12.138;2022-10-13T01:25:28;11.37;;;4.70;;
16480;SDS011;44634;54.110;12.138;2022-10-13T01:28:17;7.50;;;3.70;;
16480;SDS011;44634;54.110;12.138;2022-10-13T01:31:01;13.43;;;4.17;;
16480;SDS011;44634;54.110;12.138;2022-10-13T01:33:36;7.53;;;3.90;;
16480;SDS011;44634;54.110;12.138;2022-10-13T01:36:12;10.90;;;4.10;;
16480;SDS011;44634;54.110;12.138;2022-10-13T01:38:48;7.43;;;3.87;;
16480;SDS011;44634;54.110;12.138;2022-10-13T01:41:23;6.23;;;3.73;;
16480;SDS011;44634;54.110;12.138;2022-10-13T01:43:56;11.90;;;4.33;;
16480;SDS011;44634;54.110;12.138;2022-10-13T01:46:32;8.30;;;3.60;;
16480;SDS011;44634;54.110;12.138;2022-10-13T01:49:04;7.50;;;3.73;;
16480;SDS011;44634;54.110;12.138;2022-10-13T01:51:35;8.03;;;3.60;;
16480;SDS011;44634;54.110;12.138;2022-10-13T01:54:05;10.20;;;4.10;;
16480;SDS011;44634;54.110;12.138;2022-10-13T01:56:33;11.70;;;3.73;;
16480;SDS011;44634;54.110;12.138;2022-10-13T01:59:02;14.17;;;4.20;;
16480;SDS011;44634;54.110;12.138;2022-10-13T02:01:41;8.67;;;3.83;;
16480;SDS011;44634;54.110;12.138;2022-10-13T02:04:20;6.93;;;3.70;;
16480;SDS011;44634;54.110;12.138;2022-10-13T02:06:57;9.23;;;3.93;;
16480;SDS011;44634;54.110;12.138;2022-10-13T02:09:31;9.53;;;4.00;;
16480;SDS011;44634;54.110;12.138;2022-10-13T02:12:07;10.93;;;3.90;;
16480;SDS011;44634;54.110;12.138;2022-10-13T02:14:39;6.63;;;4.00;;
16480;SDS011;44634;54.110;12.138;2022-10-13T02:17:11;6.97;;;3.73;;
16480;SDS011;44634;54.110;12.138;2022-10-13T02:19:41;10.00;;;3.93;;
16480;SDS011;44634;54.110;12.138;2022-10-13T02:22:10;11.20;;;4.73;;
16480;SDS011;44634;54.110;12.138;2022-10-13T02:24:41;7.47;;;4.23;;
16480;SDS011;44634;54.110;12.138;2022-10-13T02:27:09;11.57;;;4.17;;
16480;SDS011;44634;54.110;12.138;2022-10-13T02:29:47;14.50;;;4.17;;
16480;SDS011;44634;54.110;12.138;2022-10-13T02:32:18;9.40;;;4.63;;
16480;SDS011;44634;54.110;12.138;2022-10-13T02:34:46;10.57;;;4.13;;
16480;SDS011;44634;54.110;12.138;2022-10-13T02:37:14;8.60;;;4.30;;
16480;SDS011;44634;54.110;12.138;2022-10-13T02:39:42;5.97;;;4.30;;
16480;SDS011;44634;54.110;12.138;2022-10-13T02:42:10;9.10;;;4.57;;
16480;SDS011;44634;54.110;12.138;2022-10-13T02:44:38;10.27;;;4.70;;
16480;SDS011;44634;54.110;12.138;2022-10-13T02:47:06;9.73;;;4.37;;
16480;SDS011;44634;54.110;12.138;2022-10-13T02:49:35;6.97;;;4.07;;
16480;SDS011;44634;54.110;12.138;2022-10-13T02:52:03;8.87;;;4.33;;
16480;SDS011;44634;54.110;12.138;2022-10-13T02:54:30;10.53;;;4.50;;
16480;SDS011;44634;54.110;12.138;2022-10-13T02:56:58;14.60;;;3.97;;
16480;SDS011;44634;54.110;12.138;2022-10-13T02:59:26;9.43;;;4.27;;
16480;SDS011;44634;54.110;12.138;2022-10-13T03:01:53;12.40;;;4.80;;
16480;SDS011;44634;54.110;12.138;2022-10-13T03:04:22;6.80;;;4.23;;
16480;SDS011;44634;54.110;12.138;2022-10-13T03:06:51;9.87;;;4.53;;
16480;SDS011;44634;54.110;12.138;2022-10-13T03:09:19;9.20;;;4.70;;
16480;SDS011;44634;54.110;12.138;2022-10-13T03:11:47;12.70;;;4.77;;
16480;SDS011;44634;54.110;12.138;2022-10-13T03:14:15;7.07;;;4.33;;
16480;SDS011;44634;54.110;12.138;2022-10-13T03:16:42;10.20;;;4.10;;
16480;SDS011;44634;54.110;12.138;2022-10-13T03:19:10;9.63;;;4.50;;
16480;SDS011;44634;54.110;12.138;2022-10-13T03:21:38;10.10;;;4.63;;
16480;SDS011;44634;54.110;12.138;2022-10-13T03:24:07;13.27;;;5.00;;
16480;SDS011;44634;54.110;12.138;2022-10-13T03:26:35;7.03;;;4.70;;
16480;SDS011;44634;54.110;12.138;2022-10-13T03:29:02;5.67;;;4.23;;
16480;SDS011;44634;54.110;12.138;2022-10-13T03:31:30;11.47;;;4.53;;
16480;SDS011;44634;54.110;12.138;2022-10-13T03:33:58;10.30;;;4.40;;
16480;SDS011;44634;54.110;12.138;2022-10-13T03:36:26;10.50;;;4.80;;
16480;SDS011;44634;54.110;12.138;2022-10-13T03:38:53;9.83;;;4.50;;
16480;SDS011;44634;54.110;12.138;2022-10-13T03:41:22;11.63;;;5.47;;
16480;SDS011;44634;54.110;12.138;2022-10-13T03:43:50;6.30;;;4.73;;
16480;SDS011;44634;54.110;12.138;2022-10-13T03:46:18;9.13;;;4.77;;
16480;SDS011;44634;54.110;12.138;2022-10-13T03:48:46;9.63;;;4.77;;
16480;SDS011;44634;54.110;12.138;2022-10-13T03:51:15;12.00;;;5.10;;
16480;SDS011;44634;54.110;12.138;2022-10-13T03:53:44;10.27;;;4.87;;
16480;SDS011;44634;54.110;12.138;2022-10-13T03:56:12;14.13;;;5.00;;
16480;SDS011;44634;54.110;12.138;2022-10-13T03:58:44;7.80;;;5.03;;
16480;SDS011;44634;54.110;12.138;2022-10-13T04:01:12;15.40;;;5.70;;
16480;SDS011;44634;54.110;12.138;2022-10-13T04:03:42;7.27;;;4.83;;
16480;SDS011;44634;54.110;12.138;2022-10-13T04:06:09;8.83;;;5.13;;
16480;SDS011;44634;54.110;12.138;2022-10-13T04:08:37;8.07;;;4.70;;
16480;SDS011;44634;54.110;12.138;2022-10-13T04:11:05;6.20;;;4.83;;
16480;SDS011;44634;54.110;12.138;2022-10-13T04:13:38;11.43;;;5.20;;
16480;SDS011;44634;54.110;12.138;2022-10-13T04:16:11;7.73;;;4.97;;
16480;SDS011;44634;54.110;12.138;2022-10-13T04:18:40;9.70;;;5.33;;
16480;SDS011;44634;54.110;12.138;2022-10-13T04:21:10;11.73;;;5.33;;
16480;SDS011;44634;54.110;12.138;2022-10-13T04:23:39;8.77;;;4.87;;
16480;SDS011;44634;54.110;12.138;2022-10-13T04:26:13;7.90;;;5.00;;
16480;SDS011;44634;54.110;12.138;2022-10-13T04:28:42;12.80;;;6.27;;
16480;SDS011;44634;54.110;12.138;2022-10-13T04:31:12;9.23;;;4.60;;
16480;SDS011;44634;54.110;12.138;2022-10-13T04:33:40;10.50;;;5.27;;
16480;SDS011;44634;54.110;12.138;2022-10-13T04:36:08;7.50;;;4.90;;
16480;SDS011;44634;54.110;12.138;2022-10-13T04:38:38;13.73;;;5.47;;
16480;SDS011;44634;54.110;12.138;2022-10-13T04:41:06;11.47;;;5.30;;
16480;SDS011;44634;54.110;12.138;2022-10-13T04:43:35;7.37;;;5.43;;
16480;SDS011;44634;54.110;12.138;2022-10-13T04:46:03;11.47;;;5.10;;
16480;SDS011;44634;54.110;12.138;2022-10-13T04:48:33;7.53;;;4.93;;
16480;SDS011;44634;54.110;12.138;2022-10-13T04:51:01;9.47;;;5.80;;
16480;SDS011;44634;54.110;12.138;2022-10-13T04:53:30;11.57;;;5.77;;
16480;SDS011;44634;54.110;12.138;2022-10-13T04:56:02;11.20;;;5.80;;
16480;SDS011;44634;54.110;12.138;2022-10-13T04:58:32;6.13;;;5.53;;
16480;SDS011;44634;54.110;12.138;2022-10-13T05:01:00;9.97;;;5.27;;
16480;SDS011;44634;54.110;12.138;2022-10-13T05:03:28;11.93;;;6.07;;
16480;SDS011;44634;54.110;12.138;2022-10-13T05:05:57;11.00;;;5.57;;
16480;SDS011;44634;54.110;12.138;2022-10-13T05:08:25;10.13;;;6.40;;
16480;SDS011;44634;54.110;12.138;2022-10-13T05:10:53;8.23;;;5.57;;
16480;SDS011;44634;54.110;12.138;2022-10-13T05:13:22;12.03;;;6.00;;
16480;SDS011;44634;54.110;12.138;2022-10-13T05:15:50;13.30;;;5.77;;
16480;SDS011;44634;54.110;12.138;2022-10-13T05:18:18;12.90;;;5.67;;
16480;SDS011;44634;54.110;12.138;2022-10-13T05:20:46;9.83;;;5.70;;
16480;SDS011;44634;54.110;12.138;2022-10-13T05:23:15;7.00;;;5.77;;
16480;SDS011;44634;54.110;12.138;2022-10-13T05:25:43;10.00;;;6.07;;
16480;SDS011;44634;54.110;12.138;2022-10-13T05:28:11;10.00;;;5.93;;
16480;SDS011;44634;54.110;12.138;2022-10-13T05:30:40;12.37;;;6.00;;
16480;SDS011;44634;54.110;12.138;2022-10-13T05:33:07;8.63;;;5.53;;
16480;SDS011;44634;54.110;12.138;2022-10-13T05:35:35;12.67;;;6.20;;
16480;SDS011;44634;54.110;12.138;2022-10-13T05:38:03;12.73;;;6.00;;
16480;SDS011;44634;54.110;12.138;2022-10-13T05:40:32;10.77;;;6.40;;
16480;SDS011;44634;54.110;12.138;2022-10-13T05:43:00;11.17;;;6.33;;
16480;SDS011;44634;54.110;12.138;2022-10-13T05:45:27;9.83;;;6.33;;
16480;SDS011;44634;54.110;12.138;2022-10-13T05:47:58;12.87;;;6.60;;
16480;SDS011;44634;54.110;12.138;2022-10-13T05:50:27;14.13;;;6.23;;
16480;SDS011;44634;54.110;12.138;2022-10-13T05:52:55;12.23;;;5.90;;
16480;SDS011;44634;54.110;12.138;2022-10-13T05:55:23;11.87;;;6.03;;
16480;SDS011;44634;54.110;12.138;2022-10-13T05:57:52;11.97;;;6.50;;
16480;SDS011;44634;54.110;12.138;2022-10-13T06:00:20;12.03;;;6.00;;
16480;SDS011;44634;54.110;12.138;2022-10-13T06:02:49;10.80;;;6.67;;
16480;SDS011;44634;54.110;12.138;2022-10-13T06:05:21;11.33;;;6.67;;
16480;SDS011;44634;54.110;12.138;2022-10-13T06:07:52;12.70;;;6.53;;
16480;SDS011;44634;54.110;12.138;2022-10-13T06:10:21;11.17;;;6.43;;
16480;SDS011;44634;54.110;12.138;2022-10-13T06:12:49;13.07;;;6.73;;
16480;SDS011;44634;54.110;12.138;2022-10-13T06:15:19;9.77;;;6.53;;
16480;SDS011;44634;54.110;12.138;2022-10-13T06:17:53;15.37;;;6.33;;
16480;SDS011;44634;54.110;12.138;2022-10-13T06:20:20;11.80;;;6.20;;
16480;SDS011;44634;54.110;12.138;2022-10-13T06:22:49;12.30;;;5.90;;
16480;SDS011;44634;54.110;12.138;2022-10-13T06:25:16;12.30;;;7.13;;
16480;SDS011;44634;54.110;12.138;2022-10-13T06:27:44;12.07;;;6.80;;
16480;SDS011;44634;54.110;12.138;2022-10-13T06:30:12;9.00;;;6.63;;
16480;SDS011;44634;54.110;12.138;2022-10-13T06:32:41;11.13;;;6.27;;
16480;SDS011;44634;54.110;12.138;2022-10-13T06:35:08;9.60;;;5.83;;
16480;SDS011;44634;54.110;12.138;2022-10-13T06:37:36;9.20;;;6.23;;
16480;SDS011;44634;54.110;12.138;2022-10-13T06:40:05;17.13;;;6.77;;
16480;SDS011;44634;54.110;12.138;2022-10-13T06:42:33;13.83;;;7.23;;
16480;SDS011;44634;54.110;12.138;2022-10-13T06:45:01;8.73;;;6.20;;
16480;SDS011;44634;54.110;12.138;2022-10-13T06:47:29;12.77;;;6.13;;
16480;SDS011;44634;54.110;12.138;2022-10-13T06:49:59;12.37;;;6.17;;
16480;SDS011;44634;54.110;12.138;2022-10-13T06:52:26;15.13;;;6.87;;
16480;SDS011;44634;54.110;12.138;2022-10-13T06:54:54;15.17;;;6.87;;
16480;SDS011;44634;54.110;12.138;2022-10-13T06:57:22;11.13;;;6.70;;
16480;SDS011;44634;54.110;12.138;2022-10-13T06:59:49;10.73;;;6.53;;
16480;SDS011;44634;54.110;12.138;2022-10-13T07:02:18;14.13;;;6.67;;
16480;SDS011;44634;54.110;12.138;2022-10-13T07:04:46;12.83;;;6.93;;
16480;SDS011;44634;54.110;12.138;2022-10-13T07:07:15;14.30;;;7.47;;
16480;SDS011;44634;54.110;12.138;2022-10-13T07:09:43;16.50;;;8.90;;
16480;SDS011;44634;54.110;12.138;2022-10-13T07:12:11;14.63;;;6.80;;
16480;SDS011;44634;54.110;12.138;2022-10-13T07:14:39;11.97;;;7.07;;
16480;SDS011;44634;54.110;12.138;2022-10-13T07:17:09;14.03;;;7.17;;
16480;SDS011;44634;54.110;12.138;2022-10-13T07:19:37;21.53;;;7.47;;
16480;SDS011;44634;54.110;12.138;2022-10-13T07:22:04;13.20;;;6.93;;
16480;SDS011;44634;54.110;12.138;2022-10-13T07:24:33;13.27;;;7.17;;
16480;SDS011;44634;54.110;12.138;2022-10-13T07:27:01;12.13;;;6.97;;
16480;SDS011;44634;54.110;12.138;2022-10-13T07:29:33;12.87;;;7.43;;
16480;SDS011;44634;54.110;12.138;2022-10-13T07:32:01;13.40;;;7.17;;
16480;SDS011;44634;54.110;12.138;2022-10-13T07:34:28;11.47;;;7.07;;
16480;SDS011;44634;54.110;12.138;2022-10-13T07:36:56;11.83;;;6.80;;
16480;SDS011;44634;54.110;12.138;2022-10-13T07:39:24;11.43;;;7.40;;
16480;SDS011;44634;54.110;12.138;2022-10-13T07:41:53;12.60;;;6.70;;
16480;SDS011;44634;54.110;12.138;2022-10-13T07:44:21;11.10;;;6.63;;
16480;SDS011;44634;54.110;12.138;2022-10-13T07:46:49;13.27;;;6.97;;
16480;SDS011;44634;54.110;12.138;2022-10-13T07:49:16;12.53;;;7.00;;
16480;SDS011;44634;54.110;12.138;2022-10-13T07:51:44;9.77;;;6.57;;
16480;SDS011;44634;54.110;12.138;2022-10-13T07:54:12;12.57;;;6.80;;
16480;SDS011;44634;54.110;12.138;2022-10-13T07:56:40;15.27;;;8.03;;
16480;SDS011;44634;54.110;12.138;2022-10-13T07:59:09;9.97;;;6.40;;
16480;SDS011;44634;54.110;12.138;2022-10-13T08:01:37;10.13;;;6.30;;
16480;SDS011;44634;54.110;12.138;2022-10-13T08:04:06;14.17;;;6.30;;
16480;SDS011;44634;54.110;12.138;2022-10-13T08:06:34;10.80;;;6.10;;
16480;SDS011;44634;54.110;12.138;2022-10-13T08:09:02;11.47;;;6.70;;
16480;SDS011;44634;54.110;12.138;2022-10-13T08:11:30;10.77;;;6.27;;
16480;SDS011;44634;54.110;12.138;2022-10-13T08:13:58;9.40;;;5.70;;
16480;SDS011;44634;54.110;12.138;2022-10-13T08:16:28;10.63;;;6.43;;
16480;SDS011;44634;54.110;12.138;2022-10-13T08:18:57;12.20;;;6.03;;
16480;SDS011;44634;54.110;12.138;2022-10-13T08:21:25;10.93;;;6.10;;
16480;SDS011;44634;54.110;12.138;2022-10-13T08:24:15;8.43;;;6.10;;
16480;SDS011;44634;54.110;12.138;2022-10-13T08:26:44;11.70;;;6.70;;
16480;SDS011;44634;54.110;12.138;2022-10-13T08:29:12;13.23;;;6.70;;
16480;SDS011;44634;54.110;12.138;2022-10-13T08:31:51;9.60;;;6.13;;
16480;SDS011;44634;54.110;12.138;2022-10-13T08:34:19;12.83;;;6.50;;
16480;SDS011;44634;54.110;12.138;2022-10-13T08:36:48;9.23;;;6.40;;
16480;SDS011;44634;54.110;12.138;2022-10-13T08:39:19;8.67;;;6.40;;
16480;SDS011;44634;54.110;12.138;2022-10-13T08:41:47;9.53;;;6.20;;
16480;SDS011;44634;54.110;12.138;2022-10-13T08:44:18;14.93;;;7.60;;
16480;SDS011;44634;54.110;12.138;2022-10-13T08:47:13;9.80;;;6.70;;
16480;SDS011;44634;54.110;12.138;2022-10-13T08:49:46;9.17;;;6.93;;
16480;SDS011;44634;54.110;12.138;2022-10-13T08:52:15;10.87;;;7.10;;
16480;SDS011;44634;54.110;12.138;2022-10-13T08:54:46;9.93;;;6.60;;
16480;SDS011;44634;54.110;12.138;2022-10-13T08:57:14;11.57;;;7.03;;
16480;SDS011;44634;54.110;12.138;2022-10-13T08:59:43;9.77;;;6.43;;
16480;SDS011;44634;54.110;12.138;2022-10-13T09:02:13;10.20;;;7.17;;
16480;SDS011;44634;54.110;12.138;2022-10-13T09:04:48;12.30;;;6.80;;
16480;SDS011;44634;54.110;12.138;2022-10-13T09:07:19;11.43;;;6.93;;
16480;SDS011;44634;54.110;12.138;2022-10-13T09:09:50;11.43;;;6.80;;
16480;SDS011;44634;54.110;12.138;2022-10-13T09:12:18;10.83;;;7.10;;
16480;SDS011;44634;54.110;12.138;2022-10-13T09:14:57;13.00;;;7.07;;
16480;SDS011;44634;54.110;12.138;2022-10-13T09:17:30;11.67;;;6.70;;
16480;SDS011;44634;54.110;12.138;2022-10-13T09:20:00;10.07;;;6.97;;
16480;SDS011;44634;54.110;12.138;2022-10-13T09:22:29;13.43;;;7.47;;
16480;SDS011;44634;54.110;12.138;2022-10-13T09:25:07;10.87;;;7.53;;
16480;SDS011;44634;54.110;12.138;2022-10-13T09:27:46;13.00;;;7.20;;
16480;SDS011;44634;54.110;12.138;2022-10-13T09:30:23;9.80;;;7.37;;
16480;SDS011;44634;54.110;12.138;2022-10-13T09:33:12;12.00;;;7.60;;
16480;SDS011;44634;54.110;12.138;2022-10-13T09:35:47;13.73;;;7.93;;
16480;SDS011;44634;54.110;12.138;2022-10-13T09:38:32;13.10;;;7.80;;
16480;SDS011;44634;54.110;12.138;2022-10-13T09:41:01;9.97;;;7.03;;
16480;SDS011;44634;54.110;12.138;2022-10-13T09:43:32;12.57;;;8.23;;
16480;SDS011;44634;54.110;12.138;2022-10-13T09:46:02;13.70;;;8.73;;
16480;SDS011;44634;54.110;12.138;2022-10-13T09:48:39;15.53;;;8.00;;
16480;SDS011;44634;54.110;12.138;2022-10-13T09:51:11;11.30;;;7.50;;
16480;SDS011;44634;54.110;12.138;2022-10-13T09:53:57;11.23;;;7.27;;
16480;SDS011;44634;54.110;12.138;2022-10-13T09:56:25;10.67;;;7.93;;
16480;SDS011;44634;54.110;12.138;2022-10-13T09:59:03;11.47;;;7.67;;
16480;SDS011;44634;54.110;12.138;2022-10-13T10:01:37;9.83;;;6.77;;
16480;SDS011;44634;54.110;12.138;2022-10-13T10:04:10;9.23;;;6.80;;
16480;SDS011;44634;54.110;12.138;2022-10-13T10:06:43;9.80;;;7.00;;
16480;SDS011;44634;54.110;12.138;2022-10-13T10:09:21;11.73;;;7.37;;
16480;SDS011;44634;54.110;12.138;2022-10-13T10:11:58;14.47;;;7.33;;
16480;SDS011;44634;54.110;12.138;2022-10-13T10:14:27;9.47;;;7.40;;
16480;SDS011;44634;54.110;12.138;2022-10-13T10:16:59;16.63;;;7.73;;
16480;SDS011;44634;54.110;12.138;2022-10-13T10:19:41;12.57;;;9.10;;
16480;SDS011;44634;54.110;12.138;2022-10-13T10:22:15;11.63;;;7.17;;
16480;SDS011;44634;54.110;12.138;2022-10-13T10:24:52;11.00;;;6.80;;
16480;SDS011;44634;54.110;12.138;2022-10-13T10:27:26;10.57;;;7.20;;
16480;SDS011;44634;54.110;12.138;2022-10-13T10:29:58;10.30;;;6.87;;
16480;SDS011;44634;54.110;12.138;2022-10-13T10:32:32;11.13;;;6.90;;
16480;SDS011;44634;54.110;12.138;2022-10-13T10:35:12;9.07;;;6.90;;
16480;SDS011;44634;54.110;12.138;2022-10-13T10:37:48;13.10;;;6.83;;
16480;SDS011;44634;54.110;12.138;2022-10-13T10:40:27;14.50;;;7.00;;
16480;SDS011;44634;54.110;12.138;2022-10-13T10:43:07;9.63;;;7.10;;
16480;SDS011;44634;54.110;12.138;2022-10-13T10:45:53;13.43;;;7.43;;
16480;SDS011;44634;54.110;12.138;2022-10-13T10:48:24;13.27;;;7.90;;
16480;SDS011;44634;54.110;12.138;2022-10-13T10:50:58;9.47;;;7.83;;
16480;SDS011;44634;54.110;12.138;2022-10-13T10:53:30;13.07;;;8.67;;
16480;SDS011;44634;54.110;12.138;2022-10-13T10:56:03;13.77;;;7.67;;
16480;SDS011;44634;54.110;12.138;2022-10-13T10:58:40;13.43;;;8.13;;
16480;SDS011;44634;54.110;12.138;2022-10-13T11:01:18;11.80;;;8.03;;
16480;SDS011;44634;54.110;12.138;2022-10-13T11:03:55;13.83;;;7.43;;
16480;SDS011;44634;54.110;12.138;2022-10-13T11:06:34;12.67;;;7.93;;
16480;SDS011;44634;54.110;12.138;2022-10-13T11:09:04;12.23;;;9.00;;
16480;SDS011;44634;54.110;12.138;2022-10-13T11:11:37;9.93;;;7.53;;
16480;SDS011;44634;54.110;12.138;2022-10-13T11:14:24;14.03;;;8.57;;
16480;SDS011;44634;54.110;12.138;2022-10-13T11:17:01;10.97;;;8.23;;
16480;SDS011;44634;54.110;12.138;2022-10-13T11:19:37;11.87;;;8.73;;
16480;SDS011;44634;54.110;12.138;2022-10-13T11:22:11;17.73;;;9.20;;
16480;SDS011;44634;54.110;12.138;2022-10-13T11:24:44;10.93;;;8.33;;
16480;SDS011;44634;54.110;12.138;2022-10-13T11:27:18;14.40;;;8.83;;
16480;SDS011;44634;54.110;12.138;2022-10-13T11:29:53;17.40;;;8.63;;
16480;SDS011;44634;54.110;12.138;2022-10-13T11:35:22;22.97;;;9.23;;
16480;SDS011;44634;54.110;12.138;2022-10-13T11:37:57;14.57;;;8.80;;
16480;SDS011;44634;54.110;12.138;2022-10-13T11:40:42;13.87;;;9.17;;
16480;SDS011;44634;54.110;12.138;2022-10-13T11:43:30;14.77;;;8.63;;
16480;SDS011;44634;54.110;12.138;2022-10-13T11:46:15;14.20;;;9.00;;
16480;SDS011;44634;54.110;12.138;2022-10-13T11:48:53;12.47;;;8.97;;
16480;SDS011;44634;54.110;12.138;2022-10-13T11:51:35;15.67;;;8.03;;
16480;SDS011;44634;54.110;12.138;2022-10-13T11:54:18;13.97;;;8.80;;
16480;SDS011;44634;54.110;12.138;2022-10-13T11:56:51;13.03;;;8.37;;
16480;SDS011;44634;54.110;12.138;2022-10-13T11:59:22;14.50;;;8.40;;
16480;SDS011;44634;54.110;12.138;2022-10-13T12:01:52;14.53;;;9.30;;
16480;SDS011;44634;54.110;12.138;2022-10-13T12:04:20;14.83;;;9.23;;
16480;SDS011;44634;54.110;12.138;2022-10-13T12:06:53;14.80;;;9.10;;
16480;SDS011;44634;54.110;12.138;2022-10-13T12:09:24;13.70;;;8.40;;
16480;SDS011;44634;54.110;12.138;2022-10-13T12:11:57;13.07;;;8.20;;
16480;SDS011;44634;54.110;12.138;2022-10-13T12:14:29;14.47;;;8.00;;
16480;SDS011;44634;54.110;12.138;2022-10-13T12:16:59;15.20;;;9.37;;
16480;SDS011;44634;54.110;12.138;2022-10-13T12:19:28;11.80;;;8.47;;
16480;SDS011;44634;54.110;12.138;2022-10-13T12:21:58;10.93;;;8.33;;
16480;SDS011;44634;54.110;12.138;2022-10-13T12:24:29;15.90;;;8.27;;
16480;SDS011;44634;54.110;12.138;2022-10-13T12:26:57;16.77;;;8.67;;
16480;SDS011;44634;54.110;12.138;2022-10-13T12:29:25;15.67;;;7.53;;
16480;SDS011;44634;54.110;12.138;2022-10-13T12:32:01;11.90;;;7.70;;
16480;SDS011;44634;54.110;12.138;2022-10-13T12:34:31;15.97;;;8.40;;
16480;SDS011;44634;54.110;12.138;2022-10-13T12:37:02;11.87;;;8.40;;
16480;SDS011;44634;54.110;12.138;2022-10-13T12:39:33;12.40;;;7.50;;
16480;SDS011;44634;54.110;12.138;2022-10-13T12:42:02;15.17;;;8.13;;
16480;SDS011;44634;54.110;12.138;2022-10-13T12:44:33;13.30;;;7.60;;
16480;SDS011;44634;54.110;12.138;2022-10-13T12:47:01;12.90;;;8.07;;
16480;SDS011;44634;54.110;12.138;2022-10-13T12:49:30;13.87;;;8.13;;
16480;SDS011;44634;54.110;12.138;2022-10-13T12:52:03;11.70;;;8.07;;
16480;SDS011;44634;54.110;12.138;2022-10-13T12:54:34;14.17;;;9.77;;
16480;SDS011;44634;54.110;12.138;2022-10-13T12:57:05;16.77;;;8.27;;
16480;SDS011;44634;54.110;12.138;2022-10-13T12:59:43;11.40;;;8.00;;
16480;SDS011;44634;54.110;12.138;2022-10-13T13:02:18;10.43;;;7.30;;
16480;SDS011;44634;54.110;12.138;2022-10-13T13:04:48;12.33;;;7.67;;
16480;SDS011;44634;54.110;12.138;2022-10-13T13:07:25;10.43;;;6.73;;
16480;SDS011;44634;54.110;12.138;2022-10-13T13:12:46;12.50;;;7.00;;
16480;SDS011;44634;54.110;12.138;2022-10-13T13:15:16;14.50;;;7.13;;
16480;SDS011;44634;54.110;12.138;2022-10-13T13:17:46;11.97;;;6.80;;
16480;SDS011;44634;54.110;12.138;2022-10-13T13:20:31;8.73;;;6.73;;
16480;SDS011;44634;54.110;12.138;2022-10-13T13:23:02;10.30;;;7.07;;
16480;SDS011;44634;54.110;12.138;2022-10-13T13:25:32;12.00;;;7.23;;
16480;SDS011;44634;54.110;12.138;2022-10-13T13:28:02;13.33;;;6.80;;
16480;SDS011;44634;54.110;12.138;2022-10-13T13:30:30;9.33;;;6.97;;
16480;SDS011;44634;54.110;12.138;2022-10-13T13:32:58;10.73;;;7.17;;
16480;SDS011;44634;54.110;12.138;2022-10-13T13:35:26;13.77;;;7.83;;
16480;SDS011;44634;54.110;12.138;2022-10-13T13:37:53;14.77;;;7.00;;
16480;SDS011;44634;54.110;12.138;2022-10-13T13:40:22;9.47;;;6.57;;
16480;SDS011;44634;54.110;12.138;2022-10-13T13:42:52;8.13;;;6.83;;
16480;SDS011;44634;54.110;12.138;2022-10-13T13:45:21;8.70;;;7.00;;
16480;SDS011;44634;54.110;12.138;2022-10-13T13:47:50;12.70;;;7.40;;
16480;SDS011;44634;54.110;12.138;2022-10-13T13:50:22;8.57;;;7.00;;
16480;SDS011;44634;54.110;12.138;2022-10-13T13:52:52;13.50;;;7.00;;
16480;SDS011;44634;54.110;12.138;2022-10-13T13:55:20;9.60;;;6.87;;
16480;SDS011;44634;54.110;12.138;2022-10-13T13:57:48;14.97;;;7.70;;
16480;SDS011;44634;54.110;12.138;2022-10-13T14:00:17;12.47;;;7.73;;
16480;SDS011;44634;54.110;12.138;2022-10-13T14:02:45;11.23;;;7.70;;
16480;SDS011;44634;54.110;12.138;2022-10-13T14:05:14;12.00;;;7.17;;
16480;SDS011;44634;54.110;12.138;2022-10-13T14:07:42;13.63;;;7.73;;
16480;SDS011;44634;54.110;12.138;2022-10-13T14:10:09;9.33;;;6.97;;
16480;SDS011;44634;54.110;12.138;2022-10-13T14:12:37;14.70;;;7.57;;
16480;SDS011;44634;54.110;12.138;2022-10-13T14:15:05;11.97;;;7.90;;
16480;SDS011;44634;54.110;12.138;2022-10-13T14:17:35;12.10;;;7.33;;
16480;SDS011;44634;54.110;12.138;2022-10-13T14:20:03;14.83;;;8.37;;
16480;SDS011;44634;54.110;12.138;2022-10-13T14:22:32;10.77;;;7.90;;
16480;SDS011;44634;54.110;12.138;2022-10-13T14:24:59;15.20;;;8.00;;
16480;SDS011;44634;54.110;12.138;2022-10-13T14:27:27;11.23;;;7.40;;
16480;SDS011;44634;54.110;12.138;2022-10-13T14:29:56;15.87;;;8.33;;
16480;SDS011;44634;54.110;12.138;2022-10-13T14:32:24;12.27;;;7.90;;
16480;SDS011;44634;54.110;12.138;2022-10-13T14:34:53;12.07;;;7.20;;
16480;SDS011;44634;54.110;12.138;2022-10-13T14:37:21;12.50;;;6.57;;
16480;SDS011;44634;54.110;12.138;2022-10-13T14:39:54;32.47;;;26.93;;
16480;SDS011;44634;54.110;12.138;2022-10-13T14:42:21;12.13;;;8.03;;
16480;SDS011;44634;54.110;12.138;2022-10-13T14:44:49;9.10;;;7.23;;
16480;SDS011;44634;54.110;12.138;2022-10-13T14:47:17;12.20;;;6.97;;
16480;SDS011;44634;54.110;12.138;2022-10-13T14:49:45;12.83;;;7.57;;
16480;SDS011;44634;54.110;12.138;2022-10-13T14:52:14;20.00;;;8.07;;
16480;SDS011;44634;54.110;12.138;2022-10-13T14:54:42;11.07;;;7.73;;
16480;SDS011;44634;54.110;12.138;2022-10-13T14:57:10;11.97;;;8.33;;